Página principal
METAR-TAF:

METAR-TAF

Aeroportos :

Niamtougou, Togo

latitude: 09-46N, longitude: 001-06E, altura: 342 m

Observação actual do tempo

O boletim foi feito há 2 horas e 50 minutos, às 03:00 UTC
Vento 2 kt de es-sudeste
Temperatura 21°C
Humidade 100%
Pressão 1014 hPa
Visibilidade 10 km ou mais
Nuvens dispersasa uma altura de 600 ft
Poucas nuvensa uma altura de 1600 ft, Cumulonimbus.

METAR: DXNG 220300Z 12002KT 9999 SCT006 FEW016CB 21/21 Q1014

Hora: 05:50 (05:50 UTC)

Previsão

O boletim foi feito há 6 horas e 50 minutos, às 23:00 UTC
Previsão válida de 22 às 00 UTC a 22 às 24 UTC
Vento 5 kt com direcção variável
Visibilidade 10 km ou mais
Nuvens dispersasa uma altura de 600 ft

TAF: DXNG 212300Z 2200/2224 VRB05KT 9999 SCT006

Observações e previsões do tempo de mais de 4000 aeroportos (mensagens METAR e TAF).

As estações disponíveis são os pontos amarelos e vermelhos sobre o mapa.

Mova o rato sobre o mapa para ver o nome da estação.

Depois clique no ponto para visualizar as observações e previsões meteorológicas.

Para alterar o mapa : clique nos botões verdes com uma cruz preta para aumentar o zoom; no botão verde com uma pitada de zoom; ou nas setas verdes para mapas adjacentes.


METAR-TAF: